sensor_id;sensor_type;location;lat;lon;timestamp;P1;durP1;ratioP1;P2;durP2;ratioP2
59074;SDS011;44860;53.020;6.738;2023-06-22T00:00:56;27.55;;;24.58;;
59074;SDS011;44860;53.020;6.738;2023-06-22T00:03:23;25.35;;;22.75;;
59074;SDS011;44860;53.020;6.738;2023-06-22T00:05:50;27.42;;;24.70;;
59074;SDS011;44860;53.020;6.738;2023-06-22T00:08:17;27.17;;;24.50;;
59074;SDS011;44860;53.020;6.738;2023-06-22T00:10:43;27.77;;;24.98;;
59074;SDS011;44860;53.020;6.738;2023-06-22T00:13:10;26.08;;;23.38;;
59074;SDS011;44860;53.020;6.738;2023-06-22T00:15:37;28.27;;;23.35;;
59074;SDS011;44860;53.020;6.738;2023-06-22T00:18:07;28.50;;;25.50;;
59074;SDS011;44860;53.020;6.738;2023-06-22T00:20:34;27.98;;;25.08;;
59074;SDS011;44860;53.020;6.738;2023-06-22T00:23:02;28.25;;;25.35;;
59074;SDS011;44860;53.020;6.738;2023-06-22T00:25:35;27.88;;;24.98;;
59074;SDS011;44860;53.020;6.738;2023-06-22T00:28:02;29.80;;;26.75;;
59074;SDS011;44860;53.020;6.738;2023-06-22T00:30:29;29.00;;;26.05;;
59074;SDS011;44860;53.020;6.738;2023-06-22T00:32:55;29.45;;;26.40;;
59074;SDS011;44860;53.020;6.738;2023-06-22T00:35:21;28.17;;;25.40;;
59074;SDS011;44860;53.020;6.738;2023-06-22T00:37:47;29.85;;;26.75;;
59074;SDS011;44860;53.020;6.738;2023-06-22T00:40:12;30.80;;;27.77;;
59074;SDS011;44860;53.020;6.738;2023-06-22T00:42:39;29.35;;;26.33;;
59074;SDS011;44860;53.020;6.738;2023-06-22T00:45:05;29.67;;;26.75;;
59074;SDS011;44860;53.020;6.738;2023-06-22T00:47:31;28.58;;;25.67;;
59074;SDS011;44860;53.020;6.738;2023-06-22T00:49:59;32.53;;;29.08;;
59074;SDS011;44860;53.020;6.738;2023-06-22T00:52:25;30.50;;;27.27;;
59074;SDS011;44860;53.020;6.738;2023-06-22T00:54:58;33.10;;;29.60;;
59074;SDS011;44860;53.020;6.738;2023-06-22T00:57:27;33.15;;;29.80;;
59074;SDS011;44860;53.020;6.738;2023-06-22T00:59:53;33.47;;;30.15;;
59074;SDS011;44860;53.020;6.738;2023-06-22T01:02:20;32.55;;;29.23;;
59074;SDS011;44860;53.020;6.738;2023-06-22T01:04:45;32.65;;;29.45;;
59074;SDS011;44860;53.020;6.738;2023-06-22T01:12:27;32.88;;;29.60;;
59074;SDS011;44860;53.020;6.738;2023-06-22T01:17:55;33.75;;;29.50;;
59074;SDS011;44860;53.020;6.738;2023-06-22T01:20:23;31.50;;;28.20;;
59074;SDS011;44860;53.020;6.738;2023-06-22T01:25:20;30.88;;;27.90;;
59074;SDS011;44860;53.020;6.738;2023-06-22T01:27:58;29.95;;;26.92;;
59074;SDS011;44860;53.020;6.738;2023-06-22T01:30:26;30.27;;;27.17;;
59074;SDS011;44860;53.020;6.738;2023-06-22T01:32:54;33.25;;;29.75;;
59074;SDS011;44860;53.020;6.738;2023-06-22T01:35:24;32.40;;;28.98;;
59074;SDS011;44860;53.020;6.738;2023-06-22T01:37:50;33.05;;;29.48;;
59074;SDS011;44860;53.020;6.738;2023-06-22T01:40:16;32.47;;;29.05;;
59074;SDS011;44860;53.020;6.738;2023-06-22T01:42:43;32.38;;;29.00;;
59074;SDS011;44860;53.020;6.738;2023-06-22T01:45:10;33.22;;;29.92;;
59074;SDS011;44860;53.020;6.738;2023-06-22T01:47:37;33.17;;;29.88;;
59074;SDS011;44860;53.020;6.738;2023-06-22T01:50:04;33.65;;;30.15;;
59074;SDS011;44860;53.020;6.738;2023-06-22T01:52:30;33.30;;;29.73;;
59074;SDS011;44860;53.020;6.738;2023-06-22T01:54:59;33.78;;;30.35;;
59074;SDS011;44860;53.020;6.738;2023-06-22T01:57:25;33.63;;;30.20;;
59074;SDS011;44860;53.020;6.738;2023-06-22T01:59:59;35.88;;;32.15;;
59074;SDS011;44860;53.020;6.738;2023-06-22T02:05:38;34.42;;;30.92;;
59074;SDS011;44860;53.020;6.738;2023-06-22T02:10:42;33.95;;;30.33;;
59074;SDS011;44860;53.020;6.738;2023-06-22T02:13:09;36.58;;;32.67;;
59074;SDS011;44860;53.020;6.738;2023-06-22T02:15:36;34.22;;;30.83;;
59074;SDS011;44860;53.020;6.738;2023-06-22T02:18:02;35.58;;;31.95;;
59074;SDS011;44860;53.020;6.738;2023-06-22T02:20:28;37.58;;;33.70;;
59074;SDS011;44860;53.020;6.738;2023-06-22T02:22:53;36.70;;;32.85;;
59074;SDS011;44860;53.020;6.738;2023-06-22T02:25:19;34.97;;;31.23;;
59074;SDS011;44860;53.020;6.738;2023-06-22T02:27:46;33.92;;;30.52;;
59074;SDS011;44860;53.020;6.738;2023-06-22T02:30:12;31.55;;;28.40;;
59074;SDS011;44860;53.020;6.738;2023-06-22T02:32:39;31.73;;;28.35;;
59074;SDS011;44860;53.020;6.738;2023-06-22T02:35:08;30.67;;;27.67;;
59074;SDS011;44860;53.020;6.738;2023-06-22T02:37:37;32.42;;;29.17;;
59074;SDS011;44860;53.020;6.738;2023-06-22T02:40:09;30.38;;;27.48;;
59074;SDS011;44860;53.020;6.738;2023-06-22T02:42:36;30.98;;;27.77;;
59074;SDS011;44860;53.020;6.738;2023-06-22T02:45:02;33.47;;;30.02;;
59074;SDS011;44860;53.020;6.738;2023-06-22T02:47:28;32.15;;;29.05;;
59074;SDS011;44860;53.020;6.738;2023-06-22T02:49:53;32.22;;;29.02;;
59074;SDS011;44860;53.020;6.738;2023-06-22T02:52:19;33.22;;;29.70;;
59074;SDS011;44860;53.020;6.738;2023-06-22T02:54:45;32.97;;;29.77;;
59074;SDS011;44860;53.020;6.738;2023-06-22T02:57:11;34.47;;;31.10;;
59074;SDS011;44860;53.020;6.738;2023-06-22T02:59:41;32.95;;;29.65;;
59074;SDS011;44860;53.020;6.738;2023-06-22T03:02:07;32.70;;;29.30;;
59074;SDS011;44860;53.020;6.738;2023-06-22T03:04:34;31.20;;;27.98;;
59074;SDS011;44860;53.020;6.738;2023-06-22T03:07:00;32.85;;;29.65;;
59074;SDS011;44860;53.020;6.738;2023-06-22T03:09:26;34.20;;;30.83;;
59074;SDS011;44860;53.020;6.738;2023-06-22T03:11:55;35.55;;;31.95;;
59074;SDS011;44860;53.020;6.738;2023-06-22T03:14:21;41.03;;;36.88;;
59074;SDS011;44860;53.020;6.738;2023-06-22T03:16:47;40.72;;;36.50;;
59074;SDS011;44860;53.020;6.738;2023-06-22T03:19:13;41.45;;;37.15;;
59074;SDS011;44860;53.020;6.738;2023-06-22T03:21:39;40.30;;;36.13;;
59074;SDS011;44860;53.020;6.738;2023-06-22T03:24:05;39.97;;;36.00;;
59074;SDS011;44860;53.020;6.738;2023-06-22T03:26:32;39.92;;;35.83;;
59074;SDS011;44860;53.020;6.738;2023-06-22T03:28:57;40.72;;;36.58;;
59074;SDS011;44860;53.020;6.738;2023-06-22T03:31:23;44.88;;;40.17;;
59074;SDS011;44860;53.020;6.738;2023-06-22T03:33:49;48.55;;;43.28;;
59074;SDS011;44860;53.020;6.738;2023-06-22T03:36:15;47.60;;;42.45;;
59074;SDS011;44860;53.020;6.738;2023-06-22T03:38:45;47.30;;;42.17;;
59074;SDS011;44860;53.020;6.738;2023-06-22T03:41:11;45.22;;;40.50;;
59074;SDS011;44860;53.020;6.738;2023-06-22T03:43:37;43.40;;;38.75;;
59074;SDS011;44860;53.020;6.738;2023-06-22T03:46:03;44.70;;;40.08;;
59074;SDS011;44860;53.020;6.738;2023-06-22T03:48:29;43.15;;;38.63;;
59074;SDS011;44860;53.020;6.738;2023-06-22T03:50:54;45.25;;;40.40;;
59074;SDS011;44860;53.020;6.738;2023-06-22T03:53:20;43.63;;;39.13;;
59074;SDS011;44860;53.020;6.738;2023-06-22T03:55:49;45.95;;;41.17;;
59074;SDS011;44860;53.020;6.738;2023-06-22T03:58:16;42.53;;;38.03;;
59074;SDS011;44860;53.020;6.738;2023-06-22T04:00:44;43.13;;;38.65;;
59074;SDS011;44860;53.020;6.738;2023-06-22T04:03:13;42.75;;;38.33;;
59074;SDS011;44860;53.020;6.738;2023-06-22T04:05:39;44.47;;;39.85;;
59074;SDS011;44860;53.020;6.738;2023-06-22T04:08:05;43.05;;;38.60;;
59074;SDS011;44860;53.020;6.738;2023-06-22T04:10:31;43.33;;;38.78;;
59074;SDS011;44860;53.020;6.738;2023-06-22T04:12:57;42.65;;;38.15;;
59074;SDS011;44860;53.020;6.738;2023-06-22T04:15:23;42.05;;;37.75;;
59074;SDS011;44860;53.020;6.738;2023-06-22T04:17:48;43.17;;;38.70;;
59074;SDS011;44860;53.020;6.738;2023-06-22T04:20:14;40.53;;;36.47;;
59074;SDS011;44860;53.020;6.738;2023-06-22T04:22:39;43.50;;;38.92;;
59074;SDS011;44860;53.020;6.738;2023-06-22T04:25:05;41.30;;;37.20;;
59074;SDS011;44860;53.020;6.738;2023-06-22T04:27:32;42.55;;;38.17;;
59074;SDS011;44860;53.020;6.738;2023-06-22T04:30:06;42.28;;;38.08;;
59074;SDS011;44860;53.020;6.738;2023-06-22T04:32:33;42.88;;;38.67;;
59074;SDS011;44860;53.020;6.738;2023-06-22T04:35:01;41.63;;;37.55;;
59074;SDS011;44860;53.020;6.738;2023-06-22T04:37:31;42.25;;;37.78;;
59074;SDS011;44860;53.020;6.738;2023-06-22T04:39:57;41.80;;;37.42;;
59074;SDS011;44860;53.020;6.738;2023-06-22T04:42:24;43.20;;;38.80;;
59074;SDS011;44860;53.020;6.738;2023-06-22T04:44:53;41.28;;;37.17;;
59074;SDS011;44860;53.020;6.738;2023-06-22T04:47:19;43.78;;;39.17;;
59074;SDS011;44860;53.020;6.738;2023-06-22T04:49:44;43.13;;;38.70;;
59074;SDS011;44860;53.020;6.738;2023-06-22T04:52:11;44.17;;;39.70;;
59074;SDS011;44860;53.020;6.738;2023-06-22T04:54:37;42.83;;;38.55;;
59074;SDS011;44860;53.020;6.738;2023-06-22T04:57:06;40.10;;;36.00;;
59074;SDS011;44860;53.020;6.738;2023-06-22T04:59:35;41.63;;;37.55;;
59074;SDS011;44860;53.020;6.738;2023-06-22T05:02:04;45.03;;;40.47;;
59074;SDS011;44860;53.020;6.738;2023-06-22T05:04:31;47.45;;;42.50;;
59074;SDS011;44860;53.020;6.738;2023-06-22T05:06:57;42.63;;;38.15;;
59074;SDS011;44860;53.020;6.738;2023-06-22T05:09:25;43.72;;;39.25;;
59074;SDS011;44860;53.020;6.738;2023-06-22T05:11:51;43.47;;;38.97;;
59074;SDS011;44860;53.020;6.738;2023-06-22T05:14:17;43.45;;;38.92;;
59074;SDS011;44860;53.020;6.738;2023-06-22T05:16:44;44.58;;;40.03;;
59074;SDS011;44860;53.020;6.738;2023-06-22T05:19:10;46.58;;;41.53;;
59074;SDS011;44860;53.020;6.738;2023-06-22T05:21:36;44.15;;;39.33;;
59074;SDS011;44860;53.020;6.738;2023-06-22T05:24:02;47.88;;;41.90;;
59074;SDS011;44860;53.020;6.738;2023-06-22T05:26:29;43.50;;;38.80;;
59074;SDS011;44860;53.020;6.738;2023-06-22T05:28:55;42.70;;;38.20;;
59074;SDS011;44860;53.020;6.738;2023-06-22T05:31:22;41.55;;;37.33;;
59074;SDS011;44860;53.020;6.738;2023-06-22T05:33:48;45.33;;;40.35;;
59074;SDS011;44860;53.020;6.738;2023-06-22T05:36:16;47.13;;;42.10;;
59074;SDS011;44860;53.020;6.738;2023-06-22T05:38:43;46.83;;;41.70;;
59074;SDS011;44860;53.020;6.738;2023-06-22T05:41:12;45.10;;;39.67;;
59074;SDS011;44860;53.020;6.738;2023-06-22T05:43:38;41.58;;;37.28;;
59074;SDS011;44860;53.020;6.738;2023-06-22T05:46:05;43.22;;;38.53;;
59074;SDS011;44860;53.020;6.738;2023-06-22T05:48:31;41.72;;;37.33;;
59074;SDS011;44860;53.020;6.738;2023-06-22T05:50:56;46.28;;;41.35;;
59074;SDS011;44860;53.020;6.738;2023-06-22T05:53:23;54.40;;;45.88;;
59074;SDS011;44860;53.020;6.738;2023-06-22T05:55:48;46.45;;;41.60;;
59074;SDS011;44860;53.020;6.738;2023-06-22T05:58:14;42.85;;;38.42;;
59074;SDS011;44860;53.020;6.738;2023-06-22T06:00:41;43.05;;;38.25;;
59074;SDS011;44860;53.020;6.738;2023-06-22T06:03:07;44.22;;;39.53;;
59074;SDS011;44860;53.020;6.738;2023-06-22T06:05:34;41.35;;;36.95;;
59074;SDS011;44860;53.020;6.738;2023-06-22T06:08:01;40.47;;;36.20;;
59074;SDS011;44860;53.020;6.738;2023-06-22T06:10:28;40.17;;;35.67;;
59074;SDS011;44860;53.020;6.738;2023-06-22T06:12:55;39.10;;;34.92;;
59074;SDS011;44860;53.020;6.738;2023-06-22T06:15:20;39.72;;;35.38;;
59074;SDS011;44860;53.020;6.738;2023-06-22T06:17:50;36.80;;;32.83;;
59074;SDS011;44860;53.020;6.738;2023-06-22T06:20:21;36.78;;;32.97;;
59074;SDS011;44860;53.020;6.738;2023-06-22T06:22:47;37.25;;;31.63;;
59074;SDS011;44860;53.020;6.738;2023-06-22T06:25:13;37.22;;;32.15;;
59074;SDS011;44860;53.020;6.738;2023-06-22T06:27:48;33.53;;;30.00;;
59074;SDS011;44860;53.020;6.738;2023-06-22T06:30:16;34.03;;;30.52;;
59074;SDS011;44860;53.020;6.738;2023-06-22T06:32:42;34.22;;;30.58;;
59074;SDS011;44860;53.020;6.738;2023-06-22T06:35:10;32.97;;;29.67;;
59074;SDS011;44860;53.020;6.738;2023-06-22T06:37:38;31.35;;;28.13;;
59074;SDS011;44860;53.020;6.738;2023-06-22T06:40:05;30.45;;;27.40;;
59074;SDS011;44860;53.020;6.738;2023-06-22T06:42:35;30.40;;;27.08;;
59074;SDS011;44860;53.020;6.738;2023-06-22T06:45:07;28.08;;;25.02;;
59074;SDS011;44860;53.020;6.738;2023-06-22T06:47:33;26.67;;;23.90;;
59074;SDS011;44860;53.020;6.738;2023-06-22T06:49:59;25.73;;;22.98;;
59074;SDS011;44860;53.020;6.738;2023-06-22T06:52:25;23.75;;;21.25;;
59074;SDS011;44860;53.020;6.738;2023-06-22T06:54:51;24.10;;;21.55;;
59074;SDS011;44860;53.020;6.738;2023-06-22T06:57:17;20.88;;;18.85;;
59074;SDS011;44860;53.020;6.738;2023-06-22T06:59:43;20.92;;;18.92;;
59074;SDS011;44860;53.020;6.738;2023-06-22T07:02:09;19.33;;;17.23;;
59074;SDS011;44860;53.020;6.738;2023-06-22T07:04:35;20.67;;;18.48;;
59074;SDS011;44860;53.020;6.738;2023-06-22T07:07:01;18.83;;;16.83;;
59074;SDS011;44860;53.020;6.738;2023-06-22T07:09:28;18.90;;;16.70;;
59074;SDS011;44860;53.020;6.738;2023-06-22T07:11:53;16.88;;;13.68;;
59074;SDS011;44860;53.020;6.738;2023-06-22T07:14:19;18.17;;;14.77;;
59074;SDS011;44860;53.020;6.738;2023-06-22T07:16:45;16.65;;;15.05;;
59074;SDS011;44860;53.020;6.738;2023-06-22T07:19:13;14.45;;;12.63;;
59074;SDS011;44860;53.020;6.738;2023-06-22T07:21:39;15.75;;;13.07;;
59074;SDS011;44860;53.020;6.738;2023-06-22T07:24:05;15.13;;;13.63;;
59074;SDS011;44860;53.020;6.738;2023-06-22T07:26:32;15.45;;;13.82;;
59074;SDS011;44860;53.020;6.738;2023-06-22T07:28:58;14.05;;;12.52;;
59074;SDS011;44860;53.020;6.738;2023-06-22T07:31:24;12.73;;;11.40;;
59074;SDS011;44860;53.020;6.738;2023-06-22T07:33:51;13.15;;;11.75;;
59074;SDS011;44860;53.020;6.738;2023-06-22T07:36:17;13.07;;;11.70;;
59074;SDS011;44860;53.020;6.738;2023-06-22T07:38:43;12.88;;;10.48;;
59074;SDS011;44860;53.020;6.738;2023-06-22T07:41:09;12.25;;;10.80;;
59074;SDS011;44860;53.020;6.738;2023-06-22T07:43:35;11.10;;;9.68;;
59074;SDS011;44860;53.020;6.738;2023-06-22T07:46:05;14.02;;;9.60;;
59074;SDS011;44860;53.020;6.738;2023-06-22T07:48:31;12.35;;;10.07;;
59074;SDS011;44860;53.020;6.738;2023-06-22T07:50:56;13.10;;;10.27;;
59074;SDS011;44860;53.020;6.738;2023-06-22T07:53:23;10.77;;;7.70;;
59074;SDS011;44860;53.020;6.738;2023-06-22T07:55:51;10.90;;;7.30;;
59074;SDS011;44860;53.020;6.738;2023-06-22T07:58:17;9.45;;;7.97;;
59074;SDS011;44860;53.020;6.738;2023-06-22T08:00:44;10.65;;;8.23;;
59074;SDS011;44860;53.020;6.738;2023-06-22T08:03:09;9.30;;;8.25;;
59074;SDS011;44860;53.020;6.738;2023-06-22T08:05:35;11.13;;;8.43;;
59074;SDS011;44860;53.020;6.738;2023-06-22T08:08:01;10.68;;;8.80;;
59074;SDS011;44860;53.020;6.738;2023-06-22T08:10:26;12.25;;;8.95;;
59074;SDS011;44860;53.020;6.738;2023-06-22T08:12:52;11.25;;;9.15;;
59074;SDS011;44860;53.020;6.738;2023-06-22T08:15:18;10.57;;;9.48;;
59074;SDS011;44860;53.020;6.738;2023-06-22T08:17:44;10.20;;;8.18;;
59074;SDS011;44860;53.020;6.738;2023-06-22T08:20:11;10.27;;;7.93;;
59074;SDS011;44860;53.020;6.738;2023-06-22T08:22:40;10.45;;;8.43;;
59074;SDS011;44860;53.020;6.738;2023-06-22T08:25:07;9.80;;;8.75;;
59074;SDS011;44860;53.020;6.738;2023-06-22T08:27:33;11.27;;;8.90;;
59074;SDS011;44860;53.020;6.738;2023-06-22T08:29:59;9.45;;;8.38;;
59074;SDS011;44860;53.020;6.738;2023-06-22T08:32:26;10.70;;;9.07;;
59074;SDS011;44860;53.020;6.738;2023-06-22T08:34:54;13.27;;;8.82;;
59074;SDS011;44860;53.020;6.738;2023-06-22T08:37:20;11.68;;;9.55;;
59074;SDS011;44860;53.020;6.738;2023-06-22T08:39:55;11.77;;;9.43;;
59074;SDS011;44860;53.020;6.738;2023-06-22T08:42:22;12.60;;;9.20;;
59074;SDS011;44860;53.020;6.738;2023-06-22T08:44:49;11.45;;;9.40;;
59074;SDS011;44860;53.020;6.738;2023-06-22T08:47:15;11.25;;;9.68;;
59074;SDS011;44860;53.020;6.738;2023-06-22T08:49:40;11.88;;;9.35;;
59074;SDS011;44860;53.020;6.738;2023-06-22T08:52:06;10.70;;;7.90;;
59074;SDS011;44860;53.020;6.738;2023-06-22T08:54:32;12.00;;;10.35;;
59074;SDS011;44860;53.020;6.738;2023-06-22T08:57:00;15.80;;;10.38;;
59074;SDS011;44860;53.020;6.738;2023-06-22T08:59:26;11.32;;;9.45;;
59074;SDS011;44860;53.020;6.738;2023-06-22T09:01:51;13.13;;;10.48;;
59074;SDS011;44860;53.020;6.738;2023-06-22T09:04:17;11.77;;;9.30;;
59074;SDS011;44860;53.020;6.738;2023-06-22T09:06:43;12.77;;;10.38;;
59074;SDS011;44860;53.020;6.738;2023-06-22T09:09:10;12.73;;;10.15;;
59074;SDS011;44860;53.020;6.738;2023-06-22T09:11:39;10.85;;;9.20;;
59074;SDS011;44860;53.020;6.738;2023-06-22T09:14:05;13.82;;;10.43;;
59074;SDS011;44860;53.020;6.738;2023-06-22T09:16:31;13.68;;;9.88;;
59074;SDS011;44860;53.020;6.738;2023-06-22T09:18:57;11.75;;;10.27;;
59074;SDS011;44860;53.020;6.738;2023-06-22T09:21:23;12.18;;;10.32;;
59074;SDS011;44860;53.020;6.738;2023-06-22T09:23:48;12.20;;;10.80;;
59074;SDS011;44860;53.020;6.738;2023-06-22T09:26:19;13.55;;;10.40;;
59074;SDS011;44860;53.020;6.738;2023-06-22T09:28:46;12.88;;;10.10;;
59074;SDS011;44860;53.020;6.738;2023-06-22T09:31:12;10.60;;;8.45;;
59074;SDS011;44860;53.020;6.738;2023-06-22T09:33:39;10.57;;;9.45;;
59074;SDS011;44860;53.020;6.738;2023-06-22T09:36:05;10.38;;;9.27;;
59074;SDS011;44860;53.020;6.738;2023-06-22T09:38:38;11.60;;;9.52;;
59074;SDS011;44860;53.020;6.738;2023-06-22T09:41:04;10.45;;;8.57;;
59074;SDS011;44860;53.020;6.738;2023-06-22T09:43:31;11.50;;;9.95;;
59074;SDS011;44860;53.020;6.738;2023-06-22T09:45:57;11.27;;;8.30;;
59074;SDS011;44860;53.020;6.738;2023-06-22T09:48:23;11.73;;;8.50;;
59074;SDS011;44860;53.020;6.738;2023-06-22T09:50:49;10.57;;;9.48;;
59074;SDS011;44860;53.020;6.738;2023-06-22T09:53:14;12.00;;;8.20;;
59074;SDS011;44860;53.020;6.738;2023-06-22T09:55:40;10.95;;;8.65;;
59074;SDS011;44860;53.020;6.738;2023-06-22T09:58:06;10.07;;;7.70;;
59074;SDS011;44860;53.020;6.738;2023-06-22T10:00:31;11.55;;;7.95;;
59074;SDS011;44860;53.020;6.738;2023-06-22T10:02:57;10.75;;;6.88;;
59074;SDS011;44860;53.020;6.738;2023-06-22T10:05:23;8.25;;;6.75;;
59074;SDS011;44860;53.020;6.738;2023-06-22T10:07:50;9.25;;;7.25;;
59074;SDS011;44860;53.020;6.738;2023-06-22T10:10:15;10.32;;;7.85;;
59074;SDS011;44860;53.020;6.738;2023-06-22T10:12:55;10.02;;;7.07;;
59074;SDS011;44860;53.020;6.738;2023-06-22T10:15:22;9.50;;;7.60;;
59074;SDS011;44860;53.020;6.738;2023-06-22T10:17:48;10.07;;;8.00;;
59074;SDS011;44860;53.020;6.738;2023-06-22T10:20:14;9.57;;;6.97;;
59074;SDS011;44860;53.020;6.738;2023-06-22T10:22:41;10.88;;;7.00;;
59074;SDS011;44860;53.020;6.738;2023-06-22T10:25:08;9.55;;;6.30;;
59074;SDS011;44860;53.020;6.738;2023-06-22T10:27:34;8.45;;;6.47;;
59074;SDS011;44860;53.020;6.738;2023-06-22T10:30:00;8.82;;;5.82;;
59074;SDS011;44860;53.020;6.738;2023-06-22T10:32:26;8.38;;;6.45;;
59074;SDS011;44860;53.020;6.738;2023-06-22T10:34:53;7.25;;;5.80;;
59074;SDS011;44860;53.020;6.738;2023-06-22T10:37:19;7.65;;;5.80;;
59074;SDS011;44860;53.020;6.738;2023-06-22T10:39:45;12.80;;;6.35;;
59074;SDS011;44860;53.020;6.738;2023-06-22T10:42:11;8.20;;;6.82;;
59074;SDS011;44860;53.020;6.738;2023-06-22T10:44:37;8.13;;;6.55;;
59074;SDS011;44860;53.020;6.738;2023-06-22T10:47:05;8.98;;;6.25;;
59074;SDS011;44860;53.020;6.738;2023-06-22T10:49:31;8.48;;;6.65;;
59074;SDS011;44860;53.020;6.738;2023-06-22T10:51:57;9.93;;;6.03;;
59074;SDS011;44860;53.020;6.738;2023-06-22T10:54:23;8.85;;;5.00;;
59074;SDS011;44860;53.020;6.738;2023-06-22T10:56:48;8.95;;;6.43;;
59074;SDS011;44860;53.020;6.738;2023-06-22T10:59:14;9.13;;;5.72;;
59074;SDS011;44860;53.020;6.738;2023-06-22T11:01:41;7.80;;;6.07;;
59074;SDS011;44860;53.020;6.738;2023-06-22T11:04:07;7.78;;;5.60;;
59074;SDS011;44860;53.020;6.738;2023-06-22T11:06:32;7.70;;;5.68;;
59074;SDS011;44860;53.020;6.738;2023-06-22T11:08:58;8.60;;;6.05;;
59074;SDS011;44860;53.020;6.738;2023-06-22T11:11:25;11.45;;;8.00;;
59074;SDS011;44860;53.020;6.738;2023-06-22T11:13:52;6.63;;;5.82;;
59074;SDS011;44860;53.020;6.738;2023-06-22T11:16:18;6.97;;;4.82;;
59074;SDS011;44860;53.020;6.738;2023-06-22T11:18:43;10.82;;;6.25;;
59074;SDS011;44860;53.020;6.738;2023-06-22T11:21:09;7.95;;;5.50;;
59074;SDS011;44860;53.020;6.738;2023-06-22T11:23:35;6.50;;;5.80;;
59074;SDS011;44860;53.020;6.738;2023-06-22T11:26:00;7.28;;;5.75;;
59074;SDS011;44860;53.020;6.738;2023-06-22T11:28:27;7.40;;;5.20;;
59074;SDS011;44860;53.020;6.738;2023-06-22T11:30:52;7.35;;;5.50;;
59074;SDS011;44860;53.020;6.738;2023-06-22T11:33:18;7.13;;;5.53;;
59074;SDS011;44860;53.020;6.738;2023-06-22T11:35:44;7.45;;;5.47;;
59074;SDS011;44860;53.020;6.738;2023-06-22T11:38:10;7.82;;;4.93;;
59074;SDS011;44860;53.020;6.738;2023-06-22T11:40:35;6.85;;;5.07;;
59074;SDS011;44860;53.020;6.738;2023-06-22T11:43:01;8.30;;;6.00;;
59074;SDS011;44860;53.020;6.738;2023-06-22T11:45:27;7.32;;;4.95;;
59074;SDS011;44860;53.020;6.738;2023-06-22T11:47:53;8.07;;;5.25;;
59074;SDS011;44860;53.020;6.738;2023-06-22T11:50:19;11.73;;;5.60;;
59074;SDS011;44860;53.020;6.738;2023-06-22T11:52:44;6.95;;;5.47;;
59074;SDS011;44860;53.020;6.738;2023-06-22T11:55:10;7.05;;;5.20;;
59074;SDS011;44860;53.020;6.738;2023-06-22T11:57:36;7.88;;;5.68;;
59074;SDS011;44860;53.020;6.738;2023-06-22T12:00:04;7.85;;;5.20;;
59074;SDS011;44860;53.020;6.738;2023-06-22T12:02:41;8.02;;;6.00;;
59074;SDS011;44860;53.020;6.738;2023-06-22T12:05:07;9.70;;;6.05;;
59074;SDS011;44860;53.020;6.738;2023-06-22T12:07:33;8.07;;;6.32;;
59074;SDS011;44860;53.020;6.738;2023-06-22T12:09:59;7.40;;;5.18;;
59074;SDS011;44860;53.020;6.738;2023-06-22T12:12:24;9.02;;;6.30;;
59074;SDS011;44860;53.020;6.738;2023-06-22T12:14:50;7.45;;;5.97;;
59074;SDS011;44860;53.020;6.738;2023-06-22T12:17:15;8.35;;;5.75;;
59074;SDS011;44860;53.020;6.738;2023-06-22T12:19:41;8.98;;;6.13;;
59074;SDS011;44860;53.020;6.738;2023-06-22T12:22:07;7.35;;;6.25;;
59074;SDS011;44860;53.020;6.738;2023-06-22T12:24:32;7.25;;;5.80;;
59074;SDS011;44860;53.020;6.738;2023-06-22T12:26:58;8.82;;;5.93;;
59074;SDS011;44860;53.020;6.738;2023-06-22T12:29:24;7.15;;;5.85;;
59074;SDS011;44860;53.020;6.738;2023-06-22T12:31:49;7.97;;;6.45;;
59074;SDS011;44860;53.020;6.738;2023-06-22T12:34:15;10.20;;;6.57;;
59074;SDS011;44860;53.020;6.738;2023-06-22T12:36:41;9.20;;;6.70;;
59074;SDS011;44860;53.020;6.738;2023-06-22T12:39:06;9.45;;;6.65;;
59074;SDS011;44860;53.020;6.738;2023-06-22T12:41:32;9.15;;;6.82;;
59074;SDS011;44860;53.020;6.738;2023-06-22T12:43:58;8.70;;;7.13;;
59074;SDS011;44860;53.020;6.738;2023-06-22T12:46:23;7.93;;;6.47;;
59074;SDS011;44860;53.020;6.738;2023-06-22T12:48:49;7.30;;;6.10;;
59074;SDS011;44860;53.020;6.738;2023-06-22T12:51:21;7.78;;;6.30;;
59074;SDS011;44860;53.020;6.738;2023-06-22T12:53:47;10.63;;;6.70;;
59074;SDS011;44860;53.020;6.738;2023-06-22T12:56:13;9.43;;;6.30;;
59074;SDS011;44860;53.020;6.738;2023-06-22T12:58:38;8.98;;;7.25;;
59074;SDS011;44860;53.020;6.738;2023-06-22T13:01:04;12.57;;;6.90;;
59074;SDS011;44860;53.020;6.738;2023-06-22T13:03:30;7.53;;;5.80;;
59074;SDS011;44860;53.020;6.738;2023-06-22T13:05:55;9.02;;;6.95;;
59074;SDS011;44860;53.020;6.738;2023-06-22T13:08:21;9.48;;;6.70;;
59074;SDS011;44860;53.020;6.738;2023-06-22T13:10:47;8.27;;;6.47;;
59074;SDS011;44860;53.020;6.738;2023-06-22T13:13:12;7.80;;;7.00;;
59074;SDS011;44860;53.020;6.738;2023-06-22T13:15:38;9.10;;;6.80;;
59074;SDS011;44860;53.020;6.738;2023-06-22T13:18:04;8.30;;;6.50;;
59074;SDS011;44860;53.020;6.738;2023-06-22T13:20:29;7.28;;;6.20;;
59074;SDS011;44860;53.020;6.738;2023-06-22T13:22:55;8.63;;;6.00;;
59074;SDS011;44860;53.020;6.738;2023-06-22T13:25:21;9.20;;;7.00;;
59074;SDS011;44860;53.020;6.738;2023-06-22T13:27:51;7.65;;;6.30;;
59074;SDS011;44860;53.020;6.738;2023-06-22T13:30:17;7.95;;;6.22;;
59074;SDS011;44860;53.020;6.738;2023-06-22T13:32:43;8.27;;;5.40;;
59074;SDS011;44860;53.020;6.738;2023-06-22T13:35:09;8.32;;;6.55;;
59074;SDS011;44860;53.020;6.738;2023-06-22T13:37:35;7.45;;;5.95;;
59074;SDS011;44860;53.020;6.738;2023-06-22T13:40:01;9.15;;;6.25;;
59074;SDS011;44860;53.020;6.738;2023-06-22T13:42:30;8.38;;;5.43;;
59074;SDS011;44860;53.020;6.738;2023-06-22T13:44:56;10.48;;;5.90;;
59074;SDS011;44860;53.020;6.738;2023-06-22T13:47:21;7.18;;;5.60;;
59074;SDS011;44860;53.020;6.738;2023-06-22T13:49:47;6.40;;;5.32;;
59074;SDS011;44860;53.020;6.738;2023-06-22T13:52:13;6.53;;;5.43;;
59074;SDS011;44860;53.020;6.738;2023-06-22T13:54:38;7.35;;;5.40;;
59074;SDS011;44860;53.020;6.738;2023-06-22T13:57:04;7.05;;;5.90;;
59074;SDS011;44860;53.020;6.738;2023-06-22T13:59:30;6.65;;;5.95;;
59074;SDS011;44860;53.020;6.738;2023-06-22T14:01:56;8.15;;;5.50;;
59074;SDS011;44860;53.020;6.738;2023-06-22T14:04:22;7.85;;;5.55;;
59074;SDS011;44860;53.020;6.738;2023-06-22T14:06:48;10.05;;;6.20;;
59074;SDS011;44860;53.020;6.738;2023-06-22T14:09:14;10.20;;;5.85;;
59074;SDS011;44860;53.020;6.738;2023-06-22T14:11:40;8.50;;;5.60;;
59074;SDS011;44860;53.020;6.738;2023-06-22T14:14:06;8.65;;;6.30;;
59074;SDS011;44860;53.020;6.738;2023-06-22T14:16:31;7.97;;;6.10;;
59074;SDS011;44860;53.020;6.738;2023-06-22T14:18:57;10.55;;;6.28;;
59074;SDS011;44860;53.020;6.738;2023-06-22T14:21:23;9.88;;;6.70;;
59074;SDS011;44860;53.020;6.738;2023-06-22T14:23:50;8.65;;;6.40;;
59074;SDS011;44860;53.020;6.738;2023-06-22T14:26:16;8.45;;;5.97;;
59074;SDS011;44860;53.020;6.738;2023-06-22T14:28:45;9.23;;;6.07;;
59074;SDS011;44860;53.020;6.738;2023-06-22T14:31:17;9.93;;;6.80;;
59074;SDS011;44860;53.020;6.738;2023-06-22T14:33:47;7.57;;;5.65;;
59074;SDS011;44860;53.020;6.738;2023-06-22T14:36:17;9.88;;;7.07;;
59074;SDS011;44860;53.020;6.738;2023-06-22T14:38:43;9.45;;;6.72;;
59074;SDS011;44860;53.020;6.738;2023-06-22T14:41:09;9.93;;;7.63;;
59074;SDS011;44860;53.020;6.738;2023-06-22T14:43:35;8.93;;;7.13;;